Grandeur Of The Seas — C6SE3 — position and weather

sailwx.info

Track history (hours):
 
Tides and Currents Weather Stations Pressure Air Temp Water Temp Dewpoint Dewpoint Depression Visibility Wind Speed Wind Dir Waves Ship Positions

Grandeur Of The Seas

Operator: Royal Caribbean Cruises Ltd

Last reported at 2020-Mar-28 15:14 UTC. Time now 2020-Mar-29 15:54 UTC.
Position N 25°47' W 078°04'.

Type: Passenger vessel. MMSI: 311315000.

Date/timePositionNaut miles runAvg speedWind from/ knotsBaromVisibWave heightAir tempDewpointWater temp
2020-Mar-28 15:14N 25°47' W 078°04'  
2020-Mar-25 05:01N 26°11' W 079°07'31 8.9
2020-Mar-25 01:30N 25°57' W 079°38'4 9.0
2020-Mar-25 01:00N 25°55' W 079°43'4 9.0
2020-Mar-25 00:30N 25°54' W 079°47'14 9.5
2020-Mar-24 23:01N 25°48' W 080°02'8 5.4
2020-Mar-24 21:31N 25°47' W 080°11'0 0.0
2020-Mar-24 20:01N 25°47' W 080°11'0 0.0
2020-Mar-24 19:31N 25°47' W 080°11'0 0.0
2020-Mar-24 19:01N 25°47' W 080°11'0 0.0
2020-Mar-24 17:31N 25°47' W 080°11'0 0.0
2020-Mar-24 17:01N 25°47' W 080°11'0 0.0
2020-Mar-24 15:31N 25°47' W 080°11'0 0.0
2020-Mar-24 13:58N 25°47' W 080°11'0 0.0
2020-Mar-24 13:28N 25°47' W 080°11'0 0.0
2020-Mar-24 13:01N 25°47' W 080°11'7 2.3
2020-Mar-24 10:00N 25°47' W 080°03'11 7.2
2020-Mar-24 08:30N 25°57' W 079°57'4 8.5
2020-Mar-24 08:00N 26°01' W 079°55'4 8.4
2020-Mar-24 07:30N 26°04' W 079°53'17 8.4
2020-Mar-24 05:27N 26°20' W 079°45'8 8.0
2020-Mar-24 04:28N 26°28' W 079°45'  
2020-Mar-19 23:37N 38°45' W 076°26'1321.5
2020-Mar-19 23:01N 38°58' W 076°23'1314.7
2020-Mar-19 22:06N 39°11' W 076°26'9 4.2
2020-Mar-19 19:58N 39°16' W 076°36'0 0.0
2020-Mar-19 19:28N 39°16' W 076°36'0 0.0
2020-Mar-19 18:28N 39°16' W 076°36'0 0.0
2020-Mar-19 16:28N 39°16' W 076°36'0 0.0
2020-Mar-19 14:28N 39°16' W 076°36'0 0.0
2020-Mar-19 13:58N 39°16' W 076°36'0 0.0
2020-Mar-19 13:28N 39°16' W 076°36'0 0.0
2020-Mar-19 09:58N 39°16' W 076°36'1 1.4
2020-Mar-19 09:30N 39°15' W 076°35'9 9.2
2020-Mar-19 08:30N 39°10' W 076°26'6114.0
2020-Mar-19 04:12N 38°10' W 076°14'  
Track history (hours):
 
Tides and Currents Weather Stations Pressure Air Temp Water Temp Dewpoint Dewpoint Depression Visibility Wind Speed Wind Dir Waves Ship Positions

Grandeur Of The Seas

Operator: Royal Caribbean Cruises Ltd

Last reported at 2020-Mar-28 15:14 UTC. Time now 2020-Mar-29 15:54 UTC.
Position N 25°47' W 078°04'.

Type: Passenger vessel. MMSI: 311315000.

Date/timePositionNaut miles runAvg speedWind from/ knotsBaromVisibWave heightAir tempDewpointWater temp
2020-Mar-28 15:14N 25°47' W 078°04'  
2020-Mar-25 05:01N 26°11' W 079°07'31 8.9
2020-Mar-25 01:30N 25°57' W 079°38'4 9.0
2020-Mar-25 01:00N 25°55' W 079°43'4 9.0
2020-Mar-25 00:30N 25°54' W 079°47'14 9.5
2020-Mar-24 23:01N 25°48' W 080°02'8 5.4
2020-Mar-24 21:31N 25°47' W 080°11'0 0.0
2020-Mar-24 20:01N 25°47' W 080°11'0 0.0
2020-Mar-24 19:31N 25°47' W 080°11'0 0.0
2020-Mar-24 19:01N 25°47' W 080°11'0 0.0
2020-Mar-24 17:31N 25°47' W 080°11'0 0.0
2020-Mar-24 17:01N 25°47' W 080°11'0 0.0
2020-Mar-24 15:31N 25°47' W 080°11'0 0.0
2020-Mar-24 13:58N 25°47' W 080°11'0 0.0
2020-Mar-24 13:28N 25°47' W 080°11'0 0.0
2020-Mar-24 13:01N 25°47' W 080°11'7 2.3
2020-Mar-24 10:00N 25°47' W 080°03'11 7.2
2020-Mar-24 08:30N 25°57' W 079°57'4 8.5
2020-Mar-24 08:00N 26°01' W 079°55'4 8.4
2020-Mar-24 07:30N 26°04' W 079°53'17 8.4
2020-Mar-24 05:27N 26°20' W 079°45'8 8.0
2020-Mar-24 04:28N 26°28' W 079°45'  
2020-Mar-19 23:37N 38°45' W 076°26'1321.5
2020-Mar-19 23:01N 38°58' W 076°23'1314.7
2020-Mar-19 22:06N 39°11' W 076°26'9 4.2
2020-Mar-19 19:58N 39°16' W 076°36'0 0.0
2020-Mar-19 19:28N 39°16' W 076°36'0 0.0
2020-Mar-19 18:28N 39°16' W 076°36'0 0.0
2020-Mar-19 16:28N 39°16' W 076°36'0 0.0
2020-Mar-19 14:28N 39°16' W 076°36'0 0.0
2020-Mar-19 13:58N 39°16' W 076°36'0 0.0
2020-Mar-19 13:28N 39°16' W 076°36'0 0.0
2020-Mar-19 09:58N 39°16' W 076°36'1 1.4
2020-Mar-19 09:30N 39°15' W 076°35'9 9.2
2020-Mar-19 08:30N 39°10' W 076°26'6114.0
2020-Mar-19 04:12N 38°10' W 076°14'  

Dump ship's entire track history